createdAt,value
2018-05-06T00:02:09.582Z,85.20
2018-05-06T00:04:37.083Z,85.00
2018-05-06T00:07:04.576Z,85.30
2018-05-06T00:09:32.871Z,85.40
2018-05-06T00:12:01.129Z,85.40
2018-05-06T00:14:28.626Z,85.40
2018-05-06T00:16:56.925Z,85.60
2018-05-06T00:19:24.426Z,85.50
2018-05-06T00:21:51.911Z,85.80
2018-05-06T00:24:19.442Z,86.00
2018-05-06T00:26:46.941Z,85.90
2018-05-06T00:29:14.422Z,86.10
2018-05-06T00:31:41.938Z,85.90
2018-05-06T00:34:10.187Z,86.30
2018-05-06T00:36:37.670Z,86.30
2018-05-06T00:39:05.219Z,86.30
2018-05-06T00:41:32.710Z,86.00
2018-05-06T00:44:00.212Z,86.00
2018-05-06T00:46:27.790Z,85.80
2018-05-06T00:48:55.243Z,86.00
2018-05-06T00:51:23.498Z,86.00
2018-05-06T00:53:51.024Z,86.00
2018-05-06T00:56:18.535Z,86.20
2018-05-06T00:58:46.034Z,86.00
2018-05-06T01:01:14.331Z,86.60
2018-05-06T01:03:42.585Z,86.60
2018-05-06T01:06:10.078Z,86.50
2018-05-06T01:08:37.600Z,86.50
2018-05-06T01:11:05.085Z,86.90
2018-05-06T01:13:32.623Z,86.90
2018-05-06T01:16:00.104Z,87.10
2018-05-06T01:18:27.592Z,87.40
2018-05-06T01:20:55.108Z,87.50
2018-05-06T01:23:23.383Z,87.60
2018-05-06T01:25:50.907Z,87.50
2018-05-06T01:28:18.420Z,87.80
2018-05-06T01:30:45.909Z,88.00
2018-05-06T01:33:14.303Z,88.10
2018-05-06T01:35:42.576Z,87.80
2018-05-06T01:38:10.071Z,87.70
2018-05-06T01:40:38.347Z,87.90
2018-05-06T01:43:06.608Z,87.70
2018-05-06T01:45:34.091Z,87.60
2018-05-06T01:48:01.611Z,87.60
2018-05-06T01:50:29.102Z,87.60
2018-05-06T01:52:56.598Z,87.80
2018-05-06T01:55:24.175Z,87.50
2018-05-06T01:57:51.664Z,87.70
2018-05-06T02:00:19.915Z,87.60
2018-05-06T02:02:47.441Z,87.40
2018-05-06T02:05:14.935Z,87.30
2018-05-06T02:07:42.430Z,87.20
2018-05-06T02:10:09.955Z,87.60
2018-05-06T02:12:37.459Z,88.50
2018-05-06T02:15:04.974Z,88.00
2018-05-06T02:17:33.223Z,87.60
2018-05-06T02:20:00.707Z,87.60
2018-05-06T02:22:28.236Z,88.10
2018-05-06T02:24:55.717Z,88.70
2018-05-06T02:27:23.221Z,89.20
2018-05-06T02:29:50.728Z,89.50
2018-05-06T02:32:18.217Z,89.40
2018-05-06T02:34:45.732Z,89.70
2018-05-06T02:37:13.215Z,89.70
2018-05-06T02:39:40.709Z,89.30
2018-05-06T02:42:08.227Z,89.40
2018-05-06T02:44:35.706Z,89.40
2018-05-06T02:47:03.190Z,89.00
2018-05-06T02:49:30.716Z,88.50
2018-05-06T02:51:58.215Z,88.30
2018-05-06T02:54:25.708Z,88.20
2018-05-06T02:56:53.983Z,88.00
2018-05-06T02:59:21.483Z,88.00
2018-05-06T03:01:49.007Z,88.30
2018-05-06T03:04:16.488Z,88.50
2018-05-06T03:06:43.979Z,88.20
2018-05-06T03:09:11.509Z,88.40
2018-05-06T03:11:39.009Z,87.90
2018-05-06T03:14:06.510Z,88.30
2018-05-06T03:16:34.023Z,88.60
2018-05-06T03:19:01.510Z,88.70
2018-05-06T03:21:28.993Z,88.90
2018-05-06T03:23:56.505Z,88.90
2018-05-06T03:26:23.992Z,89.20
2018-05-06T03:28:51.520Z,89.00
2018-05-06T03:31:19.786Z,89.00
2018-05-06T03:33:47.287Z,88.90
2018-05-06T03:36:15.567Z,89.50
2018-05-06T03:38:43.809Z,89.70
2018-05-06T03:41:11.286Z,89.70
2018-05-06T03:43:38.807Z,89.60
2018-05-06T03:46:06.294Z,89.00
2018-05-06T03:48:33.782Z,88.30
2018-05-06T03:51:01.307Z,87.80
2018-05-06T03:53:29.567Z,87.60
2018-05-06T03:59:15.334Z,87.60
2018-05-06T04:01:47.468Z,87.50
2018-05-06T04:04:15.275Z,87.40
2018-05-06T04:06:42.766Z,87.20
2018-05-06T04:09:10.278Z,87.50
2018-05-06T04:11:37.763Z,87.90
2018-05-06T04:14:05.247Z,88.00
2018-05-06T04:16:32.773Z,87.90
2018-05-06T04:19:00.325Z,88.30
2018-05-06T04:21:27.822Z,88.40
2018-05-06T04:23:55.329Z,88.50
2018-05-06T04:26:22.815Z,88.50
2018-05-06T04:28:51.067Z,89.00
2018-05-06T04:31:18.574Z,88.80
2018-05-06T04:33:46.833Z,89.20
2018-05-06T04:36:14.309Z,89.20
2018-05-06T04:38:41.922Z,89.10
2018-05-06T04:41:09.412Z,88.60
2018-05-06T04:43:36.904Z,88.30
2018-05-06T04:46:04.414Z,88.10
2018-05-06T04:48:32.664Z,89.50
2018-05-06T04:51:00.151Z,89.40
2018-05-06T04:53:27.682Z,89.40
2018-05-06T04:55:55.175Z,89.30
2018-05-06T04:58:22.669Z,89.50
2018-05-06T05:00:50.274Z,89.70
2018-05-06T05:03:17.763Z,90.00
2018-05-06T05:05:45.259Z,89.80
2018-05-06T05:08:12.766Z,90.00
2018-05-06T05:10:41.023Z,89.80
2018-05-06T05:13:08.497Z,89.70
2018-05-06T05:15:36.111Z,89.70
2018-05-06T05:18:03.602Z,89.70
2018-05-06T05:20:31.096Z,89.40
2018-05-06T05:22:59.383Z,89.60
2018-05-06T05:25:26.874Z,89.60
2018-05-06T05:27:54.491Z,90.00
2018-05-06T05:30:21.975Z,90.00
2018-05-06T05:32:49.454Z,90.00
2018-05-06T05:35:16.985Z,89.80
2018-05-06T05:37:45.226Z,89.30
2018-05-06T05:40:12.711Z,89.20
2018-05-06T05:42:40.285Z,88.80
2018-05-06T05:45:07.730Z,88.20
2018-05-06T05:47:35.261Z,88.50
2018-05-06T05:50:02.736Z,87.00
2018-05-06T05:52:30.230Z,86.70
2018-05-06T05:54:57.753Z,86.70
2018-05-06T05:57:26.006Z,87.00
2018-05-06T05:59:54.532Z,86.70
2018-05-06T06:02:22.019Z,87.90
2018-05-06T06:04:50.260Z,87.10
2018-05-06T06:07:17.753Z,87.00
2018-05-06T06:09:45.341Z,86.40
2018-05-06T06:12:12.771Z,87.00
2018-05-06T06:14:40.253Z,86.90
2018-05-06T06:17:07.767Z,86.00
2018-05-06T06:19:35.263Z,85.60
2018-05-06T06:22:02.753Z,84.30
2018-05-06T06:24:30.282Z,82.90
2018-05-06T06:26:57.765Z,83.60
2018-05-06T06:29:25.250Z,83.10
2018-05-06T06:31:52.769Z,83.30
2018-05-06T06:34:21.050Z,82.50
2018-05-06T06:36:48.538Z,82.50
2018-05-06T06:39:16.945Z,81.30
2018-05-06T06:41:44.431Z,81.10
2018-05-06T06:44:11.922Z,82.40
2018-05-06T06:46:39.434Z,82.80
2018-05-06T06:49:07.699Z,80.70
2018-05-06T06:51:35.186Z,81.40
2018-05-06T06:54:03.475Z,79.20
2018-05-06T06:56:30.962Z,79.20
2018-05-06T06:58:59.204Z,78.60
2018-05-06T07:01:26.728Z,78.70
2018-05-06T07:03:54.210Z,78.30
2018-05-06T07:06:21.698Z,78.40
2018-05-06T07:08:49.213Z,78.20
2018-05-06T07:11:17.525Z,74.30
2018-05-06T07:13:44.964Z,74.00
2018-05-06T07:16:12.473Z,74.70
2018-05-06T07:18:39.983Z,73.20
2018-05-06T07:21:07.458Z,71.70
2018-05-06T07:23:34.970Z,69.70
2018-05-06T07:26:02.470Z,67.70
2018-05-06T07:28:29.994Z,67.30
2018-05-06T07:30:58.261Z,65.30
2018-05-06T07:33:25.748Z,65.20
2018-05-06T07:35:53.332Z,65.20
2018-05-06T07:38:20.751Z,62.30
2018-05-06T07:40:48.239Z,62.70
2018-05-06T07:43:15.751Z,62.50
2018-05-06T07:45:43.239Z,61.50
2018-05-06T07:48:10.721Z,60.90
2018-05-06T07:50:38.231Z,61.50
2018-05-06T07:53:05.731Z,60.00
2018-05-06T07:55:33.985Z,59.60
2018-05-06T07:58:01.514Z,59.70
2018-05-06T08:00:29.027Z,60.30
2018-05-06T08:02:56.583Z,59.80
2018-05-06T08:05:24.097Z,59.70
2018-05-06T08:07:51.607Z,58.90
2018-05-06T08:10:19.121Z,58.60
2018-05-06T08:12:46.620Z,57.30
2018-05-06T08:15:14.103Z,57.40
2018-05-06T08:17:41.723Z,56.40
2018-05-06T08:20:09.266Z,56.20
2018-05-06T08:22:36.751Z,56.10
2018-05-06T08:25:04.262Z,56.60
2018-05-06T08:27:32.811Z,55.50
2018-05-06T08:30:00.311Z,55.40
2018-05-06T08:32:28.686Z,56.10
2018-05-06T08:34:56.177Z,56.00
2018-05-06T08:37:23.676Z,56.00
2018-05-06T08:39:51.197Z,56.10
2018-05-06T08:42:18.733Z,56.40
2018-05-06T08:44:46.228Z,56.60
2018-05-06T08:47:15.751Z,57.00
2018-05-06T08:49:43.240Z,56.80
2018-05-06T08:52:10.735Z,55.90
2018-05-06T08:54:38.364Z,56.80
2018-05-06T08:57:05.898Z,55.60
2018-05-06T08:59:33.389Z,55.50
2018-05-06T09:02:00.920Z,56.00
2018-05-06T09:04:28.427Z,56.60
2018-05-06T09:06:55.905Z,56.80
2018-05-06T09:09:23.412Z,55.80
2018-05-06T09:11:51.669Z,54.50
2018-05-06T09:14:19.155Z,54.50
2018-05-06T09:16:46.692Z,53.80
2018-05-06T09:19:14.175Z,54.00
2018-05-06T09:21:41.664Z,54.80
2018-05-06T09:24:09.294Z,55.50
2018-05-06T09:26:36.774Z,56.20
2018-05-06T09:29:04.265Z,57.20
2018-05-06T09:31:31.782Z,55.60
2018-05-06T09:34:00.043Z,54.50
2018-05-06T09:36:27.534Z,54.50
2018-05-06T09:38:55.818Z,55.30
2018-05-06T09:41:24.063Z,55.00
2018-05-06T09:43:51.548Z,54.90
2018-05-06T09:46:19.051Z,54.80
2018-05-06T09:48:47.311Z,54.10
2018-05-06T09:51:14.809Z,54.10
2018-05-06T09:53:43.103Z,53.40
2018-05-06T09:56:11.360Z,53.20
2018-05-06T09:58:38.850Z,53.30
2018-05-06T10:01:06.375Z,53.60
2018-05-06T10:03:33.879Z,53.90
2018-05-06T10:06:01.366Z,53.60
2018-05-06T10:08:29.653Z,53.60
2018-05-06T10:10:57.906Z,53.20
2018-05-06T10:13:25.416Z,53.20
2018-05-06T10:15:53.732Z,53.30
2018-05-06T10:18:21.173Z,53.30
2018-05-06T10:20:49.455Z,53.00
2018-05-06T10:23:17.702Z,53.00
2018-05-06T10:25:45.179Z,53.00
2018-05-06T10:28:13.471Z,53.20
2018-05-06T10:30:41.653Z,53.00
2018-05-06T10:33:09.135Z,53.00
2018-05-06T10:35:36.650Z,52.70
2018-05-06T10:38:04.131Z,52.90
2018-05-06T10:40:31.615Z,54.10
2018-05-06T10:42:59.128Z,54.00
2018-05-06T10:45:27.382Z,53.40
2018-05-06T10:47:54.877Z,52.90
2018-05-06T10:50:22.579Z,53.00
2018-05-06T10:52:49.999Z,52.40
2018-05-06T10:55:17.488Z,55.00
2018-05-06T10:57:45.005Z,53.00
2018-05-06T11:00:12.486Z,53.30
2018-05-06T11:02:39.957Z,53.20
2018-05-06T11:05:07.467Z,51.70
2018-05-06T11:07:34.968Z,52.80
2018-05-06T11:10:03.206Z,51.60
2018-05-06T11:12:30.830Z,51.60
2018-05-06T11:14:59.080Z,52.30
2018-05-06T11:17:26.590Z,52.30
2018-05-06T11:19:54.872Z,50.90
2018-05-06T11:22:23.134Z,51.20
2018-05-06T11:24:50.625Z,51.20
2018-05-06T11:27:18.916Z,53.20
2018-05-06T11:29:46.422Z,53.20
2018-05-06T11:32:13.922Z,51.80
2018-05-06T11:34:41.455Z,52.10
2018-05-06T11:37:08.951Z,51.10
2018-05-06T11:39:36.433Z,50.60
2018-05-06T11:42:03.965Z,50.50
2018-05-06T11:44:31.477Z,49.60
2018-05-06T11:46:58.968Z,50.30
2018-05-06T11:49:26.502Z,49.50
2018-05-06T11:51:53.995Z,51.20
2018-05-06T11:54:21.494Z,51.40
2018-05-06T11:56:49.045Z,51.60
2018-05-06T11:59:16.534Z,51.50
2018-05-06T12:01:44.795Z,52.80
2018-05-06T12:04:12.297Z,52.80
2018-05-06T12:06:39.842Z,52.90
2018-05-06T12:09:07.336Z,51.90
2018-05-06T12:11:35.604Z,52.60
2018-05-06T12:14:03.113Z,52.50
2018-05-06T12:16:30.624Z,51.90
2018-05-06T12:18:58.331Z,52.10
2018-05-06T12:21:26.659Z,52.40
2018-05-06T12:23:54.246Z,52.30
2018-05-06T12:26:21.795Z,51.50
2018-05-06T12:28:49.302Z,52.00
2018-05-06T12:31:16.855Z,52.30
2018-05-06T12:33:44.459Z,52.70
2018-05-06T12:36:11.978Z,52.00
2018-05-06T12:38:39.514Z,52.90
2018-05-06T12:41:07.836Z,53.00
2018-05-06T12:43:35.368Z,52.90
2018-05-06T12:46:02.898Z,52.60
2018-05-06T12:48:30.450Z,52.60
2018-05-06T12:50:58.801Z,52.60
2018-05-06T12:53:50.096Z,52.60
2018-05-06T12:56:31.068Z,53.30
2018-05-06T13:01:54.384Z,53.40
2018-05-06T13:07:24.607Z,53.80
2018-05-06T13:10:01.764Z,54.00
2018-05-06T13:15:19.362Z,53.10
2018-05-06T13:17:53.374Z,53.20
2018-05-06T13:23:02.711Z,54.80
2018-05-06T13:28:28.341Z,53.40
2018-05-06T13:34:08.025Z,55.90
2018-05-06T13:36:36.311Z,55.40
2018-05-06T13:39:04.623Z,54.30
2018-05-06T13:41:32.147Z,54.20
2018-05-06T13:43:59.673Z,57.10
2018-05-06T13:46:27.211Z,55.30
2018-05-06T13:48:55.542Z,57.20
2018-05-06T13:51:23.215Z,57.40
2018-05-06T13:53:50.716Z,57.50
2018-05-06T13:56:18.244Z,55.60
2018-05-06T14:01:34.938Z,57.30
2018-05-06T14:04:14.378Z,53.40
2018-05-06T14:07:09.805Z,53.70
2018-05-06T14:09:49.716Z,54.10
2018-05-06T14:12:17.311Z,54.00
2018-05-06T14:14:45.573Z,54.00
2018-05-06T14:17:13.086Z,53.90
2018-05-06T14:19:40.578Z,53.30
2018-05-06T14:22:08.321Z,53.30
2018-05-06T14:24:36.621Z,55.30
2018-05-06T14:27:04.142Z,54.60
2018-05-06T14:29:31.644Z,55.40
2018-05-06T14:31:59.211Z,55.10
2018-05-06T14:34:27.486Z,56.30
2018-05-06T14:36:55.836Z,56.20
2018-05-06T14:39:23.321Z,56.00
2018-05-06T14:41:50.810Z,55.30
2018-05-06T14:44:18.448Z,53.90
2018-05-06T14:46:57.815Z,54.20
2018-05-06T14:49:25.457Z,54.90
2018-05-06T14:51:52.947Z,54.80
2018-05-06T14:54:20.451Z,54.80
2018-05-06T14:56:47.962Z,55.10
2018-05-06T14:59:15.448Z,56.10
2018-05-06T15:01:43.702Z,57.60
2018-05-06T15:04:12.081Z,55.50
2018-05-06T15:06:40.338Z,55.60
2018-05-06T15:09:07.818Z,55.60
2018-05-06T15:11:35.332Z,55.20
2018-05-06T15:14:02.831Z,58.40
2018-05-06T15:16:30.394Z,56.70
2018-05-06T15:18:57.884Z,55.90
2018-05-06T15:21:25.379Z,55.60
2018-05-06T15:23:52.893Z,55.10
2018-05-06T15:26:20.372Z,57.30
2018-05-06T15:28:47.899Z,55.80
2018-05-06T15:31:16.158Z,54.60
2018-05-06T15:33:43.662Z,54.60
2018-05-06T15:36:11.944Z,56.00
2018-05-06T15:38:39.442Z,55.90
2018-05-06T15:41:07.005Z,54.90
2018-05-06T15:43:34.501Z,54.10
2018-05-06T15:46:01.998Z,54.10
2018-05-06T15:48:29.486Z,54.40
2018-05-06T15:50:57.010Z,53.60
2018-05-06T15:53:24.504Z,54.50
2018-05-06T15:55:52.010Z,55.40
2018-05-06T15:58:20.301Z,54.30
2018-05-06T16:00:48.562Z,54.30
2018-05-06T16:03:27.844Z,54.30
2018-05-06T16:05:56.139Z,54.90
2018-05-06T16:08:24.410Z,54.30
2018-05-06T16:10:51.941Z,54.30
2018-05-06T16:13:19.422Z,54.30
2018-05-06T16:15:46.933Z,53.90
2018-05-06T16:18:15.220Z,54.10
2018-05-06T16:20:43.470Z,54.30
2018-05-06T16:23:10.958Z,54.20
2018-05-06T16:25:38.516Z,54.50
2018-05-06T16:28:05.994Z,54.20
2018-05-06T16:30:33.495Z,54.50
2018-05-06T16:33:01.780Z,53.10
2018-05-06T16:35:30.036Z,52.60
2018-05-06T16:37:57.709Z,52.50
2018-05-06T16:40:25.182Z,51.80
2018-05-06T16:42:52.670Z,52.00
2018-05-06T16:45:20.172Z,51.20
2018-05-06T16:47:47.727Z,51.40
2018-05-06T16:50:15.223Z,51.80
2018-05-06T16:52:42.828Z,51.80
2018-05-06T16:55:11.207Z,52.00
2018-05-06T16:57:38.897Z,52.00
2018-05-06T17:00:06.567Z,52.60
2018-05-06T17:02:34.249Z,53.70
2018-05-06T17:05:01.965Z,54.00
2018-05-06T17:07:29.594Z,55.00
2018-05-06T17:09:57.309Z,54.50
2018-05-06T17:12:25.801Z,55.10
2018-05-06T17:14:54.254Z,55.40
2018-05-06T17:17:21.874Z,55.30
2018-05-06T17:19:49.461Z,55.40
2018-05-06T17:22:17.061Z,55.50
2018-05-06T17:24:44.687Z,55.90
2018-05-06T17:27:12.230Z,55.70
2018-05-06T17:29:39.932Z,55.60
2018-05-06T17:32:07.508Z,55.60
2018-05-06T17:34:35.848Z,55.70
2018-05-06T17:37:05.079Z,56.10
2018-05-06T17:39:32.840Z,56.00
2018-05-06T17:42:00.450Z,56.10
2018-05-06T17:44:28.869Z,56.00
2018-05-06T17:46:56.641Z,56.00
2018-05-06T17:49:24.263Z,55.50
2018-05-06T17:51:53.093Z,55.90
2018-05-06T17:54:21.107Z,56.20
2018-05-06T17:56:48.777Z,56.20
2018-05-06T17:59:16.608Z,56.30
2018-05-06T18:01:44.189Z,56.40
2018-05-06T18:04:12.256Z,57.60
2018-05-06T18:06:40.688Z,57.40
2018-05-06T18:09:08.322Z,56.80
2018-05-06T18:11:36.091Z,57.90
2018-05-06T18:14:03.755Z,57.10
2018-05-06T18:16:31.349Z,57.30
2018-05-06T18:18:58.950Z,56.90
2018-05-06T18:21:27.331Z,57.40
2018-05-06T18:23:54.940Z,57.40
2018-05-06T18:26:22.458Z,57.60
2018-05-06T18:28:50.000Z,57.60
2018-05-06T18:31:17.527Z,57.90
2018-05-06T18:33:45.807Z,58.20
2018-05-06T18:36:14.098Z,58.30
2018-05-06T18:38:42.346Z,58.70
2018-05-06T18:41:09.843Z,58.80
2018-05-06T18:43:37.472Z,58.80
2018-05-06T18:46:04.965Z,68.90
2018-05-06T18:48:32.456Z,68.00
2018-05-06T18:50:59.976Z,70.10
2018-05-06T18:53:27.458Z,71.10
2018-05-06T18:55:54.975Z,70.10
2018-05-06T18:58:22.472Z,71.40
2018-05-06T19:00:49.971Z,70.80
2018-05-06T19:03:17.503Z,69.90
2018-05-06T19:05:45.012Z,71.40
2018-05-06T19:08:12.504Z,70.30
2018-05-06T19:10:40.030Z,70.60
2018-05-06T19:13:07.523Z,67.50
2018-05-06T19:15:35.005Z,67.40
2018-05-06T19:18:02.550Z,69.60
2018-05-06T19:20:30.030Z,64.30
2018-05-06T19:22:57.520Z,64.70
2018-05-06T19:25:25.146Z,64.90
2018-05-06T19:27:52.634Z,66.40
2018-05-06T19:30:20.147Z,66.30
2018-05-06T19:32:47.716Z,65.70
2018-05-06T19:35:15.202Z,65.70
2018-05-06T19:37:43.573Z,66.30
2018-05-06T19:40:11.042Z,66.30
2018-05-06T19:42:38.539Z,69.90
2018-05-06T19:45:06.795Z,67.20
2018-05-06T19:47:34.324Z,67.10
2018-05-06T19:50:01.836Z,68.20
2018-05-06T19:52:29.338Z,67.00
2018-05-06T19:54:57.627Z,67.30
2018-05-06T19:57:25.882Z,67.40
2018-05-06T19:59:53.394Z,67.30
2018-05-06T20:02:21.650Z,69.10
2018-05-06T20:04:49.195Z,69.10
2018-05-06T20:07:16.720Z,67.00
2018-05-06T20:09:44.995Z,69.50
2018-05-06T20:12:13.278Z,67.20
2018-05-06T20:14:40.771Z,67.10
2018-05-06T20:17:09.037Z,67.20
2018-05-06T20:19:36.554Z,67.00
2018-05-06T20:22:04.027Z,67.10
2018-05-06T20:24:31.516Z,67.20
2018-05-06T20:26:59.040Z,67.20
2018-05-06T20:29:27.306Z,67.70
2018-05-06T20:31:54.803Z,67.70
2018-05-06T20:34:23.239Z,67.90
2018-05-06T20:36:50.791Z,67.80
2018-05-06T20:39:18.318Z,68.10
2018-05-06T20:41:46.620Z,68.10
2018-05-06T20:44:15.397Z,68.00
2018-05-06T20:46:42.894Z,67.90
2018-05-06T20:49:10.449Z,68.20
2018-05-06T20:51:37.995Z,68.20
2018-05-06T20:54:05.480Z,68.40
2018-05-06T20:56:33.029Z,68.50
2018-05-06T20:59:00.509Z,69.20
2018-05-06T21:01:28.007Z,68.60
2018-05-06T21:03:56.332Z,68.80
2018-05-06T21:06:23.823Z,68.80
2018-05-06T21:08:51.324Z,69.60
2018-05-06T21:11:18.857Z,69.50
2018-05-06T21:13:46.370Z,69.40
2018-05-06T21:16:14.640Z,69.10
2018-05-06T21:18:42.166Z,69.10
2018-05-06T21:21:09.670Z,69.80
2018-05-06T21:23:37.161Z,69.80
2018-05-06T21:26:04.697Z,70.40
2018-05-06T21:28:32.246Z,69.80
2018-05-06T21:30:59.703Z,69.80
2018-05-06T21:33:28.143Z,70.00
2018-05-06T21:35:55.618Z,70.00
2018-05-06T21:38:23.089Z,70.30
2018-05-06T21:40:50.649Z,70.60
2018-05-06T21:43:18.171Z,70.40
2018-05-06T21:45:46.455Z,71.00
2018-05-06T21:48:14.751Z,70.80
2018-05-06T21:50:43.030Z,71.00
2018-05-06T21:53:11.362Z,71.10
2018-05-06T21:55:38.822Z,71.10
2018-05-06T21:58:06.319Z,71.50
2018-05-06T22:00:33.848Z,71.50
2018-05-06T22:03:01.349Z,71.50
2018-05-06T22:05:28.845Z,71.70
2018-05-06T22:07:56.464Z,71.90
2018-05-06T22:10:23.950Z,72.70
2018-05-06T22:12:51.441Z,72.00
2018-05-06T22:15:18.953Z,72.20
2018-05-06T22:17:46.463Z,72.30
2018-05-06T22:20:13.941Z,72.40
2018-05-06T22:22:41.463Z,72.80
2018-05-06T22:25:09.716Z,73.00
2018-05-06T22:27:37.200Z,72.80
2018-05-06T22:30:04.701Z,72.90
2018-05-06T22:32:32.198Z,73.10
2018-05-06T22:34:59.678Z,72.90
2018-05-06T22:37:27.215Z,73.50
2018-05-06T22:39:55.484Z,73.90
2018-05-06T22:42:22.965Z,73.70
2018-05-06T22:44:51.259Z,74.50
2018-05-06T22:47:19.539Z,74.60
2018-05-06T22:49:47.827Z,75.10
2018-05-06T22:52:16.090Z,75.30
2018-05-06T22:54:43.581Z,75.20
2018-05-06T22:57:11.093Z,75.10
2018-05-06T22:59:38.580Z,75.10
2018-05-06T23:02:06.110Z,75.20
2018-05-06T23:04:34.359Z,75.50
2018-05-06T23:07:01.846Z,75.40
2018-05-06T23:09:29.360Z,76.00
2018-05-06T23:11:56.851Z,76.00
2018-05-06T23:14:24.343Z,76.80
2018-05-06T23:16:51.862Z,76.80
2018-05-06T23:19:19.353Z,76.70
2018-05-06T23:21:46.935Z,76.60
2018-05-06T23:24:14.380Z,76.30
2018-05-06T23:26:41.862Z,76.70
2018-05-06T23:29:09.480Z,76.40
2018-05-06T23:31:36.974Z,76.40
2018-05-06T23:34:05.222Z,76.50
2018-05-06T23:36:32.823Z,76.50
2018-05-06T23:39:01.074Z,77.30
2018-05-06T23:41:28.546Z,77.20
2018-05-06T23:43:56.107Z,77.40
2018-05-06T23:46:23.581Z,77.60
2018-05-06T23:48:51.070Z,77.60
2018-05-06T23:51:18.594Z,77.50
2018-05-06T23:53:46.101Z,77.50
2018-05-06T23:56:13.589Z,78.40
2018-05-06T23:58:41.133Z,78.70
